createdAt,value
2018-01-27T00:02:01.215Z,94489.46
2018-01-27T00:04:27.826Z,94492.34
2018-01-27T00:06:54.533Z,94489.73
2018-01-27T00:09:21.174Z,94487.27
2018-01-27T00:11:47.745Z,94488.65
2018-01-27T00:14:14.400Z,94491.70
2018-01-27T00:16:41.741Z,94492.89
2018-01-27T00:19:08.321Z,94500.84
2018-01-27T00:21:34.914Z,94499.70
2018-01-27T00:24:01.646Z,94495.22
2018-01-27T00:26:29.766Z,94491.50
2018-01-27T00:28:56.367Z,94500.67
2018-01-27T00:31:23.746Z,94489.87
2018-01-27T00:33:50.360Z,94496.30
2018-01-27T00:36:17.744Z,94501.67
2018-01-27T00:38:44.314Z,94501.24
2018-01-27T00:41:10.943Z,94503.86
2018-01-27T00:43:37.614Z,94511.08
2018-01-27T00:46:04.227Z,94509.25
2018-01-27T00:48:31.933Z,94517.67
2018-01-27T00:50:59.247Z,94511.00
2018-01-27T00:53:25.869Z,94515.31
2018-01-27T00:55:52.456Z,94517.75
2018-01-27T00:58:19.795Z,94524.31
2018-01-27T01:00:47.131Z,94524.72
2018-01-27T01:03:13.750Z,94528.83
2018-01-27T01:05:40.390Z,94531.70
2018-01-27T01:08:07.014Z,94527.33
2018-01-27T01:10:33.632Z,94525.70
2018-01-27T01:13:00.258Z,94528.53
2018-01-27T01:15:27.546Z,94528.44
2018-01-27T01:17:54.163Z,94532.64
2018-01-27T01:20:20.738Z,94535.80
2018-01-27T01:22:47.346Z,94533.36
2018-01-27T01:25:13.962Z,94540.66
2018-01-27T01:27:40.547Z,94539.97
2018-01-27T01:30:07.296Z,94547.05
2018-01-27T01:32:33.874Z,94552.48
2018-01-27T01:35:00.473Z,94545.73
2018-01-27T01:37:27.051Z,94549.32
2018-01-27T01:39:53.730Z,94553.97
2018-01-27T01:42:26.266Z,94557.37
2018-01-27T01:44:52.846Z,94560.67
2018-01-27T01:47:19.430Z,94558.06
2018-01-27T01:49:46.022Z,94558.75
2018-01-27T01:52:13.420Z,94559.00
2018-01-27T01:54:40.781Z,94564.75
2018-01-27T01:57:07.394Z,94566.95
2018-01-27T01:59:34.746Z,94574.64
2018-01-27T02:02:01.314Z,94563.39
2018-01-27T02:04:27.983Z,94572.14
2018-01-27T02:06:54.673Z,94575.00
2018-01-27T02:09:21.443Z,94572.45
2018-01-27T02:11:48.062Z,94571.06
2018-01-27T02:14:14.634Z,94574.95
2018-01-27T02:16:41.220Z,94578.55
2018-01-27T02:19:07.798Z,94574.19
2018-01-27T02:21:34.418Z,94577.42
2018-01-27T02:24:01.112Z,94573.87
2018-01-27T02:26:27.759Z,94571.47
2018-01-27T02:28:54.378Z,94575.17
2018-01-27T02:31:21.002Z,94569.83
2018-01-27T02:33:47.581Z,94569.00
2018-01-27T02:36:14.990Z,94581.42
2018-01-27T02:38:41.594Z,94575.28
2018-01-27T02:41:08.227Z,94576.63
2018-01-27T02:43:34.940Z,94577.77
2018-01-27T02:46:01.507Z,94583.36
2018-01-27T02:48:28.113Z,94581.55
2018-01-27T02:50:54.710Z,94582.98
2018-01-27T02:53:21.398Z,94584.61
2018-01-27T02:55:48.751Z,94585.55
2018-01-27T02:58:16.067Z,94591.16
2018-01-27T03:00:42.669Z,94590.77
2018-01-27T03:03:09.266Z,94598.55
2018-01-27T03:05:35.986Z,94598.75
2018-01-27T03:08:02.574Z,94601.95
2018-01-27T03:10:29.178Z,94592.53
2018-01-27T03:12:55.753Z,94599.78
2018-01-27T03:15:22.357Z,94596.66
2018-01-27T03:17:48.985Z,94596.20
2018-01-27T03:20:15.597Z,94595.25
2018-01-27T03:22:42.193Z,94602.66
2018-01-27T03:25:09.749Z,94596.22
2018-01-27T03:27:36.367Z,94605.92
2018-01-27T03:30:02.973Z,94607.02
2018-01-27T03:32:29.541Z,94614.88
2018-01-27T03:34:56.123Z,94620.16
2018-01-27T03:37:22.689Z,94625.64
2018-01-27T03:39:49.354Z,94627.42
2018-01-27T03:42:15.959Z,94626.70
2018-01-27T03:44:42.610Z,94626.56
2018-01-27T03:47:09.236Z,94628.91
2018-01-27T03:49:35.866Z,94638.83
2018-01-27T03:52:02.451Z,94636.66
2018-01-27T03:54:29.074Z,94641.72
2018-01-27T03:56:55.708Z,94645.88
2018-01-27T03:59:23.100Z,94649.43
2018-01-27T04:01:49.697Z,94651.08
2018-01-27T04:04:16.307Z,94651.48
2018-01-27T04:06:42.951Z,94651.91
2018-01-27T04:09:09.550Z,94654.50
2018-01-27T04:11:36.142Z,94658.97
2018-01-27T04:14:02.794Z,94661.09
2018-01-27T04:16:29.325Z,94663.30
2018-01-27T04:18:55.963Z,94670.50
2018-01-27T04:21:22.641Z,94675.45
2018-01-27T04:23:49.225Z,94674.32
2018-01-27T04:26:15.852Z,94680.55
2018-01-27T04:28:42.414Z,94676.39
2018-01-27T04:31:09.034Z,94686.03
2018-01-27T04:33:35.669Z,94687.53
2018-01-27T04:36:02.265Z,94685.42
2018-01-27T04:38:28.923Z,94692.17
2018-01-27T04:40:55.491Z,94693.49
2018-01-27T04:43:22.805Z,94696.12
2018-01-27T04:45:49.454Z,94698.14
2018-01-27T04:48:16.035Z,94703.20
2018-01-27T04:50:43.365Z,94704.79
2018-01-27T04:53:09.969Z,94708.02
2018-01-27T04:55:36.583Z,94711.34
2018-01-27T04:58:03.208Z,94712.31
2018-01-27T05:00:29.754Z,94706.43
2018-01-27T05:02:56.380Z,94714.78
2018-01-27T05:05:23.072Z,94711.62
2018-01-27T05:07:49.745Z,94713.81
2018-01-27T05:10:17.071Z,94712.03
2018-01-27T05:12:43.733Z,94720.95
2018-01-27T05:15:11.053Z,94718.13
2018-01-27T05:17:37.638Z,94723.38
2018-01-27T05:20:05.002Z,94729.09
2018-01-27T05:22:31.621Z,94732.83
2018-01-27T05:24:58.338Z,94742.94
2018-01-27T05:27:24.972Z,94738.73
2018-01-27T05:29:51.550Z,94747.89
2018-01-27T05:32:18.120Z,94750.48
2018-01-27T05:34:44.858Z,94749.95
2018-01-27T05:37:11.482Z,94755.52
2018-01-27T05:39:38.059Z,94760.94
2018-01-27T05:42:04.651Z,94761.30
2018-01-27T05:44:31.245Z,94755.11
2018-01-27T05:46:58.563Z,94766.05
2018-01-27T05:49:25.142Z,94758.88
2018-01-27T05:51:52.492Z,94771.59
2018-01-27T05:54:19.802Z,94776.73
2018-01-27T05:56:46.419Z,94783.69
2018-01-27T05:59:13.062Z,94787.24
2018-01-27T06:01:39.701Z,94789.42
2018-01-27T06:04:06.263Z,94790.95
2018-01-27T06:06:32.834Z,94801.53
2018-01-27T06:09:00.198Z,94807.62
2018-01-27T06:11:27.590Z,94809.61
2018-01-27T06:13:54.194Z,94811.61
2018-01-27T06:16:21.586Z,94802.58
2018-01-27T06:18:48.210Z,94812.40
2018-01-27T06:21:14.859Z,94820.25
2018-01-27T06:23:41.586Z,94816.11
2018-01-27T06:26:08.192Z,94821.03
2018-01-27T06:28:34.782Z,94830.05
2018-01-27T06:31:01.414Z,94834.30
2018-01-27T06:33:27.986Z,94836.31
2018-01-27T06:35:55.327Z,94838.95
2018-01-27T06:38:21.894Z,94846.59
2018-01-27T06:40:49.229Z,94849.89
2018-01-27T06:43:16.574Z,94856.05
2018-01-27T06:45:43.206Z,94870.55
2018-01-27T06:48:09.822Z,94861.19
2018-01-27T06:50:36.409Z,94864.95
2018-01-27T06:53:03.759Z,94869.03
2018-01-27T06:55:30.354Z,94872.34
2018-01-27T06:57:56.962Z,94883.03
2018-01-27T07:00:23.550Z,94881.48
2018-01-27T07:02:50.146Z,94884.38
2018-01-27T07:05:16.762Z,94888.70
2018-01-27T07:07:44.196Z,94887.08
2018-01-27T07:10:10.895Z,94895.00
2018-01-27T07:12:37.495Z,94893.65
2018-01-27T07:15:04.189Z,94895.44
2018-01-27T07:17:30.889Z,94900.97
2018-01-27T07:19:57.475Z,94895.94
2018-01-27T07:22:24.075Z,94900.92
2018-01-27T07:24:50.659Z,94902.14
2018-01-27T07:27:18.062Z,94906.53
2018-01-27T07:29:44.626Z,94908.83
2018-01-27T07:32:11.224Z,94900.62
2018-01-27T07:34:37.854Z,94902.52
2018-01-27T07:37:04.506Z,94909.42
2018-01-27T07:39:31.079Z,94908.30
2018-01-27T07:41:57.674Z,94914.47
2018-01-27T07:44:24.254Z,94912.13
2018-01-27T07:46:50.975Z,94917.58
2018-01-27T07:49:17.558Z,94915.45
2018-01-27T07:51:44.228Z,94918.59
2018-01-27T07:54:10.827Z,94923.08
2018-01-27T07:56:38.194Z,94924.34
2018-01-27T07:59:04.762Z,94935.96
2018-01-27T08:01:31.402Z,94929.55
2018-01-27T08:03:58.006Z,94925.69
2018-01-27T08:06:24.739Z,94926.13
2018-01-27T08:08:52.102Z,94931.95
2018-01-27T08:11:18.722Z,94947.34
2018-01-27T08:13:46.249Z,94957.06
2018-01-27T08:16:12.955Z,94972.28
2018-01-27T08:18:39.583Z,94968.33
2018-01-27T08:21:06.182Z,94971.92
2018-01-27T08:23:32.872Z,94970.47
2018-01-27T08:25:59.493Z,94976.70
2018-01-27T08:28:26.193Z,94978.37
2018-01-27T08:30:52.826Z,94980.16
2018-01-27T08:33:19.428Z,94982.77
2018-01-27T08:35:46.016Z,94991.40
2018-01-27T08:38:12.675Z,94993.31
2018-01-27T08:40:39.274Z,94991.69
2018-01-27T08:43:05.944Z,94996.49
2018-01-27T08:45:33.253Z,95001.35
2018-01-27T08:47:59.830Z,95006.72
2018-01-27T08:50:27.179Z,95008.20
2018-01-27T08:52:54.499Z,95016.09
2018-01-27T08:55:21.168Z,95019.27
2018-01-27T08:57:47.795Z,95013.34
2018-01-27T09:00:14.398Z,95013.65
2018-01-27T09:02:41.127Z,95013.19
2018-01-27T09:05:07.722Z,95022.74
2018-01-27T09:07:34.450Z,95022.30
2018-01-27T09:10:01.011Z,95013.49
2018-01-27T09:12:27.625Z,95011.73
2018-01-27T09:14:54.934Z,95016.45
2018-01-27T09:17:21.562Z,95017.23
2018-01-27T09:19:48.173Z,95019.00
2018-01-27T09:22:14.757Z,95025.86
2018-01-27T09:24:41.351Z,95018.75
2018-01-27T09:27:07.999Z,95023.43
2018-01-27T09:29:34.648Z,95019.88
2018-01-27T09:32:01.246Z,95013.86
2018-01-27T09:34:27.882Z,95014.45
2018-01-27T09:36:55.222Z,95010.47
2018-01-27T09:39:21.906Z,95010.53
2018-01-27T09:41:49.284Z,95013.20
2018-01-27T09:44:15.899Z,95026.97
2018-01-27T09:46:42.976Z,95036.14
2018-01-27T09:49:09.605Z,95032.32
2018-01-27T09:51:36.959Z,95037.33
2018-01-27T09:54:03.614Z,95030.92
2018-01-27T09:56:30.206Z,95032.16
2018-01-27T09:58:57.830Z,95040.67
2018-01-27T10:01:25.166Z,95045.39
2018-01-27T10:03:51.819Z,95048.50
2018-01-27T10:06:18.427Z,95048.59
2018-01-27T10:08:45.117Z,95042.42
2018-01-27T10:11:11.700Z,95044.11
2018-01-27T10:13:38.337Z,95036.72
2018-01-27T10:16:04.917Z,95040.66
2018-01-27T10:18:31.516Z,95039.72
2018-01-27T10:20:58.917Z,95046.86
2018-01-27T10:23:26.287Z,95060.31
2018-01-27T10:25:52.899Z,95055.70
2018-01-27T10:28:20.297Z,95053.73
2018-01-27T10:30:47.732Z,95055.77
2018-01-27T10:33:14.351Z,95055.44
2018-01-27T10:35:40.929Z,95050.88
2018-01-27T10:38:07.630Z,95066.48
2018-01-27T10:40:35.239Z,95066.07
2018-01-27T10:43:01.852Z,95070.43
2018-01-27T10:45:28.466Z,95069.81
2018-01-27T10:47:55.850Z,95068.05
2018-01-27T10:50:22.459Z,95070.55
2018-01-27T10:52:49.908Z,95070.80
2018-01-27T10:55:17.309Z,95073.77
2018-01-27T10:57:43.898Z,95073.41
2018-01-27T11:00:10.917Z,95071.21
2018-01-27T11:02:38.280Z,95069.02
2018-01-27T11:05:05.306Z,95078.42
2018-01-27T11:07:31.906Z,95081.42
2018-01-27T11:09:58.514Z,95086.25
2018-01-27T11:12:25.110Z,95086.09
2018-01-27T11:14:51.711Z,95092.37
2018-01-27T11:17:18.290Z,95088.49
2018-01-27T11:19:44.985Z,95097.88
2018-01-27T11:22:17.491Z,95104.50
2018-01-27T11:24:44.227Z,95101.73
2018-01-27T11:27:10.854Z,95108.97
2018-01-27T11:29:37.488Z,95112.95
2018-01-27T11:32:04.121Z,95119.85
2018-01-27T11:34:30.750Z,95120.98
2018-01-27T11:36:58.050Z,95117.94
2018-01-27T11:39:24.662Z,95122.71
2018-01-27T11:41:51.291Z,95118.68
2018-01-27T11:44:17.973Z,95124.23
2018-01-27T11:46:44.623Z,95123.52
2018-01-27T11:49:11.291Z,95122.44
2018-01-27T11:51:38.598Z,95111.41
2018-01-27T11:54:05.979Z,95110.34
2018-01-27T11:56:32.929Z,95117.02
2018-01-27T11:59:00.537Z,95116.05
2018-01-27T12:01:27.124Z,95112.63
2018-01-27T12:03:54.460Z,95108.61
2018-01-27T12:06:21.126Z,95114.44
2018-01-27T12:08:48.451Z,95101.92
2018-01-27T12:11:15.106Z,95088.25
2018-01-27T12:13:41.812Z,95085.20
2018-01-27T12:16:08.412Z,95085.89
2018-01-27T12:18:35.012Z,95073.15
2018-01-27T12:21:01.669Z,95061.42
2018-01-27T12:23:28.335Z,95054.63
2018-01-27T12:25:54.902Z,95050.33
2018-01-27T12:28:21.556Z,95052.30
2018-01-27T12:30:48.170Z,95057.36
2018-01-27T12:33:14.786Z,95053.15
2018-01-27T12:35:41.425Z,95047.85
2018-01-27T12:38:08.046Z,95046.16
2018-01-27T12:40:34.706Z,95046.95
2018-01-27T12:43:01.347Z,95045.61
2018-01-27T12:45:27.967Z,95038.85
2018-01-27T12:47:54.668Z,95040.54
2018-01-27T12:50:21.326Z,95049.73
2018-01-27T12:52:48.008Z,95048.05
2018-01-27T12:55:14.619Z,95042.59
2018-01-27T12:57:41.295Z,95043.17
2018-01-27T13:00:07.934Z,95051.94
2018-01-27T13:02:35.300Z,95047.46
2018-01-27T13:05:02.739Z,95051.31
2018-01-27T13:07:29.356Z,95057.70
2018-01-27T13:09:56.097Z,95064.53
2018-01-27T13:12:22.708Z,95073.80
2018-01-27T13:14:49.379Z,95067.68
2018-01-27T13:17:15.990Z,95070.73
2018-01-27T13:19:42.614Z,95068.02
2018-01-27T13:22:09.277Z,95073.93
2018-01-27T13:24:35.927Z,95076.38
2018-01-27T13:27:02.535Z,95085.80
2018-01-27T13:29:29.132Z,95081.77
2018-01-27T13:31:55.749Z,95084.85
2018-01-27T13:34:22.397Z,95087.83
2018-01-27T13:36:49.006Z,95088.00
2018-01-27T13:39:15.609Z,95094.67
2018-01-27T13:41:42.959Z,95094.50
2018-01-27T13:44:10.363Z,95097.67
2018-01-27T13:46:36.961Z,95100.28
2018-01-27T13:49:04.473Z,95102.89
2018-01-27T13:51:31.055Z,95102.83
2018-01-27T13:53:58.426Z,95114.59
2018-01-27T13:56:25.055Z,95110.36
2018-01-27T13:58:51.719Z,95110.16
2018-01-27T14:01:18.309Z,95117.09
2018-01-27T14:03:45.709Z,95118.16
2018-01-27T14:06:12.558Z,95123.11
2018-01-27T14:08:39.158Z,95129.13
2018-01-27T14:11:05.767Z,95126.61
2018-01-27T14:13:32.452Z,95130.14
2018-01-27T14:15:59.122Z,95128.74
2018-01-27T14:18:25.707Z,95130.51
2018-01-27T14:20:52.297Z,95126.84
2018-01-27T14:23:18.870Z,95120.80
2018-01-27T14:25:46.327Z,95124.45
2018-01-27T14:28:12.960Z,95121.27
2018-01-27T14:30:40.338Z,95116.84
2018-01-27T14:33:07.025Z,95121.64
2018-01-27T14:35:33.612Z,95124.61
2018-01-27T14:38:00.215Z,95126.38
2018-01-27T14:40:26.849Z,95131.73
2018-01-27T14:42:53.455Z,95136.33
2018-01-27T14:45:20.036Z,95138.43
2018-01-27T14:47:47.375Z,95142.21
2018-01-27T14:50:14.010Z,95135.68
2018-01-27T14:52:40.750Z,95141.38
2018-01-27T14:55:07.367Z,95150.73
2018-01-27T14:57:34.000Z,95149.91
2018-01-27T15:00:00.712Z,95143.13
2018-01-27T15:02:27.375Z,95156.38
2018-01-27T15:04:54.003Z,95153.63
2018-01-27T15:07:20.659Z,95147.25
2018-01-27T15:09:47.283Z,95144.96
2018-01-27T15:12:13.894Z,95151.28
2018-01-27T15:14:40.497Z,95151.08
2018-01-27T15:17:07.077Z,95156.71
2018-01-27T15:19:33.685Z,95162.81
2018-01-27T15:22:00.276Z,95160.45
2018-01-27T15:24:26.838Z,95156.84
2018-01-27T15:26:53.498Z,95152.69
2018-01-27T15:29:20.892Z,95153.13
2018-01-27T15:31:47.470Z,95161.78
2018-01-27T15:34:14.142Z,95159.73
2018-01-27T15:36:40.743Z,95166.98
2018-01-27T15:39:07.457Z,95167.11
2018-01-27T15:41:34.066Z,95171.55
2018-01-27T15:44:00.818Z,95181.45
2018-01-27T15:46:27.485Z,95182.61
2018-01-27T15:48:54.843Z,95185.84
2018-01-27T15:51:21.418Z,95187.28
2018-01-27T15:53:48.754Z,95186.73
2018-01-27T15:56:16.109Z,95185.98
2018-01-27T15:58:43.500Z,95186.26
2018-01-27T16:01:10.160Z,95190.85
2018-01-27T16:03:36.994Z,95188.79
2018-01-27T16:06:03.623Z,95184.98
2018-01-27T16:08:30.999Z,95184.44
2018-01-27T16:10:57.608Z,95192.64
2018-01-27T16:13:24.171Z,95182.41
2018-01-27T16:15:50.798Z,95187.41
2018-01-27T16:18:17.543Z,95196.08
2018-01-27T16:20:44.269Z,95200.81
2018-01-27T16:23:10.887Z,95203.16
2018-01-27T16:25:37.735Z,95212.34
2018-01-27T16:28:04.390Z,95216.05
2018-01-27T16:30:30.955Z,95220.12
2018-01-27T16:32:57.596Z,95227.94
2018-01-27T16:35:24.237Z,95234.18
2018-01-27T16:37:50.877Z,95238.84
2018-01-27T16:40:17.491Z,95243.11
2018-01-27T16:42:45.063Z,95246.07
2018-01-27T16:45:11.736Z,95246.69
2018-01-27T16:47:38.322Z,95257.95
2018-01-27T16:50:05.030Z,95247.42
2018-01-27T16:52:31.598Z,95256.30
2018-01-27T16:54:58.186Z,95264.95
2018-01-27T16:57:24.827Z,95268.64
2018-01-27T16:59:51.466Z,95278.13
2018-01-27T17:02:18.881Z,95291.52
2018-01-27T17:04:46.282Z,95292.60
2018-01-27T17:07:12.897Z,95300.84
2018-01-27T17:09:40.210Z,95303.97
2018-01-27T17:12:06.870Z,95317.45
2018-01-27T17:14:33.462Z,95323.84
2018-01-27T17:17:00.151Z,95324.20
2018-01-27T17:19:26.742Z,95332.21
2018-01-27T17:21:53.316Z,95324.80
2018-01-27T17:24:19.961Z,95321.66
2018-01-27T17:26:46.553Z,95317.27
2018-01-27T17:29:13.122Z,95312.05
2018-01-27T17:31:39.820Z,95305.90
2018-01-27T17:34:06.442Z,95309.55
2018-01-27T17:36:33.090Z,95307.14
2018-01-27T17:38:59.695Z,95300.42
2018-01-27T17:41:26.371Z,95300.08
2018-01-27T17:43:52.969Z,95302.50
2018-01-27T17:46:19.631Z,95305.42
2018-01-27T17:48:46.299Z,95303.28
2018-01-27T17:51:12.905Z,95297.28
2018-01-27T17:53:39.547Z,95296.98
2018-01-27T17:56:06.174Z,95310.44
2018-01-27T17:58:32.840Z,95312.16
2018-01-27T18:00:59.489Z,95318.20
2018-01-27T18:03:26.062Z,95319.86
2018-01-27T18:05:53.405Z,95329.51
2018-01-27T18:08:20.191Z,95340.38
2018-01-27T18:10:46.822Z,95339.52
2018-01-27T18:13:13.460Z,95347.17
2018-01-27T18:15:40.133Z,95343.63
2018-01-27T18:18:06.757Z,95334.20
2018-01-27T18:20:33.370Z,95325.55
2018-01-27T18:23:00.712Z,95333.37
2018-01-27T18:25:27.394Z,95325.69
2018-01-27T18:27:54.037Z,95329.77
2018-01-27T18:30:20.802Z,95335.23
2018-01-27T18:32:47.510Z,95323.25
2018-01-27T18:35:14.127Z,95320.14
2018-01-27T18:37:40.720Z,95318.50
2018-01-27T18:40:07.401Z,95324.41
2018-01-27T18:42:34.070Z,95332.66
2018-01-27T18:45:01.395Z,95333.27
2018-01-27T18:47:28.262Z,95329.34
2018-01-27T18:49:54.972Z,95330.45
2018-01-27T18:52:21.561Z,95324.94
2018-01-27T18:54:48.189Z,95328.80
2018-01-27T18:57:14.792Z,95335.03
2018-01-27T18:59:41.482Z,95337.37
2018-01-27T19:02:08.080Z,95343.05
2018-01-27T19:04:34.686Z,95338.66
2018-01-27T19:07:02.110Z,95338.48
2018-01-27T19:09:28.775Z,95343.41
2018-01-27T19:11:56.091Z,95338.19
2018-01-27T19:14:22.721Z,95348.49
2018-01-27T19:16:49.328Z,95351.91
2018-01-27T19:19:15.961Z,95362.95
2018-01-27T19:21:42.656Z,95361.22
2018-01-27T19:24:09.301Z,95358.75
2018-01-27T19:26:36.014Z,95355.78
2018-01-27T19:29:03.353Z,95354.78
2018-01-27T19:31:29.993Z,95357.81
2018-01-27T19:33:56.658Z,95354.83
2018-01-27T19:36:23.257Z,95357.67
2018-01-27T19:38:49.967Z,95360.58
2018-01-27T19:41:16.614Z,95362.23
2018-01-27T19:43:43.265Z,95360.92
2018-01-27T19:46:09.907Z,95367.66
2018-01-27T19:48:36.581Z,95363.00
2018-01-27T19:51:03.196Z,95370.89
2018-01-27T19:53:29.844Z,95370.23
2018-01-27T19:55:56.516Z,95374.72
2018-01-27T19:58:23.139Z,95376.00
2018-01-27T20:00:49.812Z,95365.82
2018-01-27T20:03:16.505Z,95363.82
2018-01-27T20:05:44.114Z,95363.48
2018-01-27T20:08:10.727Z,95359.30
2018-01-27T20:10:38.153Z,95368.23
2018-01-27T20:13:04.788Z,95367.44
2018-01-27T20:15:31.632Z,95371.50
2018-01-27T20:17:58.989Z,95377.50
2018-01-27T20:20:25.629Z,95375.07
2018-01-27T20:22:52.354Z,95373.97
2018-01-27T20:25:19.067Z,95365.27
2018-01-27T20:27:45.780Z,95363.61
2018-01-27T20:30:13.264Z,95358.55
2018-01-27T20:32:39.843Z,95358.26
2018-01-27T20:35:06.452Z,95357.16
2018-01-27T20:37:33.188Z,95363.22
2018-01-27T20:39:59.981Z,95360.94
2018-01-27T20:42:26.592Z,95366.25
2018-01-27T20:44:53.224Z,95369.28
2018-01-27T20:47:19.923Z,95374.01
2018-01-27T20:49:46.637Z,95378.37
2018-01-27T20:52:13.299Z,95379.91
2018-01-27T20:54:39.959Z,95365.38
2018-01-27T20:57:06.651Z,95360.41
2018-01-27T20:59:33.912Z,95359.73
2018-01-27T21:02:01.357Z,95362.13
2018-01-27T21:04:28.791Z,95362.00
2018-01-27T21:06:55.516Z,95357.44
2018-01-27T21:09:23.075Z,95359.59
2018-01-27T21:11:49.760Z,95365.36
2018-01-27T21:14:17.099Z,95362.88
2018-01-27T21:16:43.698Z,95358.21
2018-01-27T21:19:10.350Z,95355.31
2018-01-27T21:21:37.022Z,95356.16
2018-01-27T21:24:03.754Z,95371.06
2018-01-27T21:26:31.176Z,95375.98
2018-01-27T21:28:57.836Z,95377.63
2018-01-27T21:31:24.570Z,95377.08
2018-01-27T21:33:51.268Z,95372.16
2018-01-27T21:36:17.927Z,95383.31
2018-01-27T21:38:44.842Z,95367.66
2018-01-27T21:41:11.462Z,95367.42
2018-01-27T21:43:38.094Z,95360.68
2018-01-27T21:46:05.578Z,95360.38
2018-01-27T21:48:32.435Z,95365.77
2018-01-27T21:50:59.015Z,95362.09
2018-01-27T21:53:25.627Z,95357.68
2018-01-27T21:55:52.247Z,95359.40
2018-01-27T21:58:19.827Z,95363.10
2018-01-27T22:00:46.512Z,95363.81
2018-01-27T22:03:13.169Z,95369.02
2018-01-27T22:05:39.783Z,95359.93
2018-01-27T22:08:06.466Z,95357.42
2018-01-27T22:10:33.352Z,95356.72
2018-01-27T22:12:59.970Z,95353.55
2018-01-27T22:15:26.582Z,95360.32
2018-01-27T22:17:53.202Z,95358.08
2018-01-27T22:20:19.807Z,95352.25
2018-01-27T22:22:46.487Z,95348.90
2018-01-27T22:25:13.102Z,95345.09
2018-01-27T22:27:39.722Z,95353.69
2018-01-27T22:30:07.134Z,95356.27
2018-01-27T22:32:33.767Z,95358.13
2018-01-27T22:35:00.374Z,95362.31
2018-01-27T22:37:26.942Z,95364.97
2018-01-27T22:39:53.557Z,95360.66
2018-01-27T22:42:20.174Z,95361.19
2018-01-27T22:44:46.807Z,95360.44
2018-01-27T22:47:14.118Z,95360.66
2018-01-27T22:49:40.750Z,95362.34
2018-01-27T22:52:07.375Z,95362.48
2018-01-27T22:54:33.983Z,95369.44
2018-01-27T22:57:00.582Z,95364.77
2018-01-27T22:59:27.190Z,95372.16
2018-01-27T23:01:53.879Z,95369.50
2018-01-27T23:04:21.195Z,95369.00
2018-01-27T23:06:47.887Z,95367.10
2018-01-27T23:09:14.555Z,95364.29
2018-01-27T23:11:41.113Z,95362.66
2018-01-27T23:14:08.819Z,95352.57
2018-01-27T23:16:35.422Z,95356.33
2018-01-27T23:19:02.232Z,95361.95
2018-01-27T23:21:28.882Z,95364.03
2018-01-27T23:23:55.535Z,95366.30
2018-01-27T23:26:22.163Z,95364.89
2018-01-27T23:28:49.106Z,95365.17
2018-01-27T23:31:15.710Z,95364.34
2018-01-27T23:33:42.332Z,95365.56
2018-01-27T23:36:08.952Z,95367.61
2018-01-27T23:38:35.594Z,95374.41
2018-01-27T23:41:02.947Z,95368.26
2018-01-27T23:43:30.295Z,95355.00
2018-01-27T23:45:57.723Z,95352.34
2018-01-27T23:48:24.354Z,95360.06
2018-01-27T23:50:50.938Z,95361.04
2018-01-27T23:53:17.565Z,95365.27
2018-01-27T23:55:44.942Z,95377.69
2018-01-27T23:58:12.308Z,95385.77
